^^
Station Historical Data
Daily Summary for February 15, 2018 Units:  English    Metric   Both
« Previous Day
Next Day »
Daily Weekly Monthly Yearly Custom
  High: Low: Average:
Temperature: TemperatureF °F 56.8 °F 60.9 °F
Dew Point: DewpointF °F 55.9 °F 59.6 °F
Humidity: Humidity% 91% 95%
Wind Speed: WindSpeedMPHmph 0.0mph 0mph
Wind Gust: WindSpeedGustMPHmph - -
Wind- - North
Pressure: PressureIn in 30.10 in -
Precipitation: 0.15 in    
Historical Graphs
 
 
Tabular Data for February 15, 2018
Time Temperature Dew Point Pressure Wind Wind Speed Wind Gust Humidity Rainfall Rate (Hourly)
TemperatureF °F DewpointF °F PressureIn in Calm     Humidity% HourlyPrecipIn in
00:00 57.0 °F 56.1 °F 30.33 in Calm     97% 0.03 in
00:05 57.0 °F 56.1 °F 30.33 in Calm     97% 0.03 in
00:10 57.0 °F 56.1 °F 30.32 in Calm     97% 0.03 in
00:16 56.8 °F 55.9 °F 30.32 in Calm     97% 0.03 in
00:21 56.8 °F 55.9 °F 30.32 in Calm     97% 0.04 in
00:26 56.8 °F 55.9 °F 30.32 in Calm     97% 0.05 in
00:32 56.8 °F 55.9 °F 30.31 in Calm     97% 0.05 in
00:37 56.8 °F 55.9 °F 30.31 in Calm     97% 0.04 in
00:42 57.0 °F 56.1 °F 30.31 in Calm     97% 0.04 in
00:47 56.8 °F 55.9 °F 30.30 in Calm     97% 0.03 in
00:53 57.0 °F 56.1 °F 30.30 in Calm     97% 0.04 in
00:58 57.0 °F 56.1 °F 30.29 in Calm     97% 0.04 in
01:04 57.0 °F 56.1 °F 30.29 in Calm     97% 0.03 in
01:09 57.0 °F 56.1 °F 30.29 in Calm     97% 0.03 in
01:14 57.0 °F 56.1 °F 30.29 in Calm     97% 0.04 in
01:19 57.0 °F 56.1 °F 30.29 in Calm     97% 0.04 in
01:24 57.0 °F 56.1 °F 30.29 in Calm     97% 0.03 in
01:29 57.0 °F 56.1 °F 30.29 in Calm     97% 0.04 in
01:35 57.0 °F 56.1 °F 30.29 in Calm     97% 0.05 in
01:41 57.0 °F 56.1 °F 30.29 in Calm     97% 0.06 in
01:46 57.0 °F 56.1 °F 30.29 in Calm     97% 0.06 in
01:51 57.0 °F 56.1 °F 30.29 in Calm     97% 0.06 in
01:56 57.0 °F 56.1 °F 30.29 in Calm     97% 0.05 in
02:02 57.2 °F 56.3 °F 30.29 in Calm     97% 0.05 in
02:07 57.0 °F 56.1 °F 30.28 in Calm     97% 0.05 in
02:12 57.0 °F 56.1 °F 30.28 in Calm     97% 0.05 in
02:18 57.2 °F 56.3 °F 30.28 in Calm     97% 0.06 in
02:23 57.2 °F 56.3 °F 30.28 in Calm     97% 0.05 in
02:28 57.4 °F 56.5 °F 30.28 in Calm     97% 0.04 in
02:39 57.4 °F 56.5 °F 30.28 in Calm     97% 0.02 in
02:44 57.4 °F 56.5 °F 30.27 in Calm     97% 0.02 in
02:49 57.4 °F 56.5 °F 30.27 in Calm     97% 0.02 in
02:54 57.4 °F 56.5 °F 30.27 in Calm     97% 0.02 in
02:59 57.6 °F 56.7 °F 30.27 in Calm     97% 0.02 in
03:05 57.6 °F 56.7 °F 30.27 in Calm     97% 0.02 in
03:11 57.6 °F 56.7 °F 30.27 in Calm     97% 0.01 in
03:16 57.7 °F 56.8 °F 30.27 in Calm     97% 0.00 in
03:21 57.7 °F 56.8 °F 30.27 in Calm     97% 0.00 in
03:26 57.7 °F 56.8 °F 30.27 in Calm     97% 0.00 in
03:31 57.9 °F 57.0 °F 30.27 in Calm     97% 0.00 in
03:37 57.9 °F 57.0 °F 30.27 in Calm     97% 0.00 in
03:42 57.9 °F 57.0 °F 30.27 in Calm     97% 0.00 in
03:47 57.9 °F 57.0 °F 30.27 in Calm     97% 0.00 in
03:52 57.9 °F 57.0 °F 30.27 in Calm     97% 0.00 in
03:58 57.9 °F 57.0 °F 30.27 in Calm     97% 0.00 in
04:03 57.9 °F 57.0 °F 30.27 in Calm     97% 0.00 in
04:08 57.9 °F 57.0 °F 30.26 in Calm     97% 0.00 in
04:14 57.9 °F 57.0 °F 30.26 in Calm     97% 0.00 in
04:20 57.9 °F 57.0 °F 30.26 in Calm     97% 0.00 in
04:25 57.9 °F 57.0 °F 30.26 in Calm     97% 0.00 in
04:30 57.9 °F 57.0 °F 30.26 in Calm     97% 0.00 in
04:35 57.9 °F 57.0 °F 30.26 in Calm     97% 0.00 in
04:41 57.9 °F 57.0 °F 30.26 in Calm     97% 0.00 in
04:47 58.3 °F 57.4 °F 30.26 in Calm     97% 0.00 in
04:52 58.3 °F 57.4 °F 30.26 in Calm     97% 0.00 in
04:57 57.9 °F 57.0 °F 30.25 in Calm     97% 0.00 in
05:02 57.9 °F 57.0 °F 30.25 in Calm     97% 0.00 in
05:08 58.1 °F 57.2 °F 30.25 in Calm     97% 0.00 in
05:13 58.1 °F 57.2 °F 30.25 in Calm     97% 0.00 in
05:18 58.1 °F 57.2 °F 30.25 in Calm     97% 0.00 in
05:24 57.9 °F 57.0 °F 30.25 in Calm     97% 0.00 in
05:29 57.9 °F 57.0 °F 30.25 in Calm     97% 0.00 in
05:34 57.9 °F 57.0 °F 30.25 in Calm     97% 0.00 in
05:39 57.9 °F 57.0 °F 30.25 in Calm     97% 0.00 in
05:45 57.9 °F 57.0 °F 30.25 in Calm     97% 0.00 in
05:50 57.9 °F 57.0 °F 30.25 in Calm     97% 0.00 in
05:56 57.9 °F 57.0 °F 30.25 in Calm     97% 0.00 in
06:01 57.9 °F 57.0 °F 30.24 in Calm     97% 0.00 in
06:06 57.9 °F 57.0 °F 30.25 in Calm     97% 0.00 in
06:12 57.9 °F 57.0 °F 30.25 in Calm     97% 0.01 in
06:17 58.3 °F 57.4 °F 30.24 in Calm     97% 0.01 in
06:23 58.1 °F 57.2 °F 30.24 in Calm     97% 0.01 in
06:29 58.3 °F 57.4 °F 30.25 in Calm     97% 0.01 in
06:35 58.3 °F 57.4 °F 30.25 in Calm     97% 0.01 in
06:40 58.5 °F 57.6 °F 30.25 in Calm     97% 0.01 in
06:45 58.6 °F 57.7 °F 30.25 in Calm     97% 0.01 in
06:50 58.6 °F 57.7 °F 30.25 in Calm     97% 0.01 in
06:55 58.6 °F 57.7 °F 30.25 in Calm     97% 0.01 in
07:00 58.6 °F 57.7 °F 30.25 in Calm     97% 0.02 in
07:05 58.6 °F 57.7 °F 30.25 in Calm     97% 0.02 in
07:10 58.6 °F 57.7 °F 30.25 in Calm     97% 0.02 in
07:15 58.6 °F 57.7 °F 30.25 in Calm     97% 0.01 in
07:20 58.6 °F 57.7 °F 30.25 in Calm     97% 0.01 in
07:26 58.8 °F 57.9 °F 30.25 in Calm     97% 0.02 in
07:31 58.6 °F 57.7 °F 30.26 in Calm     97% 0.02 in
07:37 58.6 °F 57.7 °F 30.26 in Calm     97% 0.02 in
07:42 58.8 °F 57.9 °F 30.26 in Calm     97% 0.02 in
07:48 58.8 °F 57.9 °F 30.26 in Calm     97% 0.02 in
07:53 58.8 °F 58.3 °F 30.26 in Calm     98% 0.02 in
07:59 58.8 °F 58.3 °F 30.26 in Calm     98% 0.02 in
08:04 59.0 °F 58.5 °F 30.26 in Calm     98% 0.02 in
08:10 58.8 °F 58.3 °F 30.26 in Calm     98% 0.02 in
08:15 59.0 °F 58.5 °F 30.26 in Calm     98% 0.02 in
08:20 59.4 °F 58.5 °F 30.26 in Calm     97% 0.02 in
08:26 59.4 °F 58.5 °F 30.26 in Calm     97% 0.01 in
08:31 59.5 °F 58.6 °F 30.27 in Calm     97% 0.01 in
08:36 59.5 °F 58.6 °F 30.27 in Calm     97% 0.01 in
08:41 59.5 °F 59.0 °F 30.27 in Calm     98% 0.02 in
08:46 59.5 °F 59.0 °F 30.28 in Calm     98% 0.02 in
08:51 59.7 °F 59.2 °F 30.27 in Calm     98% 0.02 in
08:56 59.7 °F 59.2 °F 30.27 in Calm     98% 0.02 in
09:02 59.9 °F 59.0 °F 30.27 in Calm     97% 0.01 in
09:07 60.1 °F 59.2 °F 30.27 in Calm     97% 0.01 in
09:12 60.1 °F 59.2 °F 30.27 in Calm     97% 0.01 in
09:17 60.3 °F 59.7 °F 30.28 in Calm     98% 0.01 in
09:22 60.3 °F 59.7 °F 30.27 in Calm     98% 0.01 in
09:28 60.4 °F 59.9 °F 30.27 in Calm     98% 0.01 in
09:33 60.4 °F 59.9 °F 30.28 in Calm     98% 0.01 in
09:39 60.4 °F 59.9 °F 30.28 in Calm     98% 0.00 in
09:45 60.6 °F 60.1 °F 30.28 in Calm     98% 0.00 in
09:51 60.6 °F 60.1 °F 30.28 in Calm     98% 0.00 in
09:56 60.8 °F 59.9 °F 30.29 in Calm     97% 0.00 in
10:01 60.8 °F 60.3 °F 30.28 in Calm     98% 0.00 in
10:06 61.0 °F 60.4 °F 30.29 in Calm     98% 0.00 in
10:12 61.0 °F 60.4 °F 30.29 in Calm     98% 0.00 in
10:17 61.2 °F 60.6 °F 30.28 in Calm     98% 0.00 in
10:23 61.2 °F 60.6 °F 30.28 in Calm     98% 0.00 in
10:28 61.3 °F 60.8 °F 30.28 in Calm     98% 0.00 in
10:33 61.3 °F 60.4 °F 30.28 in Calm     97% 0.00 in
10:38 61.3 °F 60.4 °F 30.27 in Calm     97% 0.00 in
10:43 61.3 °F 60.4 °F 30.28 in Calm     97% 0.00 in
10:49 61.3 °F 60.4 °F 30.28 in Calm     97% 0.00 in
10:54 61.3 °F 60.4 °F 30.28 in Calm     97% 0.00 in
10:59 61.3 °F 60.8 °F 30.27 in Calm     98% 0.00 in
11:04 61.5 °F 61.0 °F 30.27 in Calm     98% 0.00 in
11:10 61.7 °F 61.2 °F 30.27 in Calm     98% 0.00 in
11:15 62.1 °F 61.5 °F 30.26 in Calm     98% 0.00 in
11:21 62.2 °F 61.7 °F 30.26 in Calm     98% 0.00 in
11:26 62.4 °F 61.9 °F 30.26 in Calm     98% 0.00 in
11:32 62.2 °F 61.7 °F 30.26 in Calm     98% 0.00 in
11:37 62.2 °F 61.7 °F 30.25 in Calm     98% 0.00 in
11:42 62.2 °F 61.7 °F 30.26 in Calm     98% 0.00 in
11:48 62.2 °F 61.7 °F 30.25 in Calm     98% 0.00 in
11:54 62.4 °F 61.5 °F 30.24 in Calm     97% 0.00 in
11:59 62.2 °F 61.3 °F 30.24 in Calm     97% 0.00 in
12:04 62.6 °F 61.7 °F 30.24 in Calm     97% 0.00 in
12:09 62.8 °F 61.9 °F 30.24 in Calm     97% 0.00 in
12:15 63.0 °F 62.1 °F 30.24 in Calm     97% 0.00 in
12:20 63.0 °F 62.1 °F 30.24 in Calm     97% 0.00 in
12:26 63.0 °F 61.9 °F 30.24 in Calm     96% 0.00 in
12:32 63.0 °F 61.9 °F 30.25 in Calm     96% 0.00 in
12:38 63.1 °F 62.1 °F 30.24 in Calm     96% 0.00 in
12:43 63.1 °F 62.1 °F 30.24 in Calm     96% 0.00 in
12:48 63.1 °F 62.1 °F 30.23 in Calm     96% 0.00 in
12:54 63.3 °F 62.2 °F 30.23 in Calm     96% 0.00 in
12:59 63.5 °F 62.4 °F 30.23 in Calm     96% 0.00 in
13:04 63.5 °F 62.1 °F 30.22 in Calm     95% 0.00 in
13:09 63.7 °F 62.2 °F 30.22 in Calm     95% 0.00 in
13:14 63.9 °F 62.4 °F 30.22 in Calm     95% 0.00 in
13:20 64.0 °F 62.2 °F 30.22 in Calm     94% 0.00 in
13:25 64.0 °F 62.2 °F 30.21 in Calm     94% 0.00 in
13:30 64.2 °F 62.4 °F 30.21 in Calm     94% 0.00 in
13:35 64.2 °F 62.4 °F 30.20 in Calm     94% 0.00 in
13:40 64.4 °F 62.4 °F 30.19 in Calm     93% 0.00 in
13:46 64.6 °F 62.4 °F 30.19 in Calm     93% 0.00 in
13:52 64.8 °F 62.6 °F 30.19 in Calm     93% 0.00 in
13:57 64.6 °F 62.4 °F 30.19 in Calm     93% 0.00 in
14:03 64.6 °F 62.4 °F 30.19 in Calm     93% 0.00 in
14:09 64.6 °F 62.4 °F 30.19 in Calm     93% 0.00 in
14:14 64.6 °F 62.2 °F 30.19 in Calm     92% 0.00 in
14:19 64.4 °F 62.1 °F 30.18 in Calm     92% 0.00 in
14:24 64.2 °F 61.9 °F 30.18 in Calm     92% 0.00 in
14:30 64.2 °F 61.9 °F 30.18 in Calm     92% 0.00 in
14:36 64.2 °F 61.9 °F 30.18 in Calm     92% 0.00 in
14:41 64.2 °F 62.2 °F 30.17 in Calm     93% 0.00 in
14:46 64.2 °F 62.2 °F 30.17 in Calm     93% 0.00 in
14:52 64.2 °F 61.9 °F 30.17 in Calm     92% 0.00 in
14:57 64.2 °F 62.2 °F 30.16 in Calm     93% 0.00 in
15:02 64.2 °F 62.2 °F 30.17 in Calm     93% 0.00 in
15:07 64.4 °F 62.1 °F 30.16 in Calm     92% 0.00 in
15:13 64.4 °F 62.1 °F 30.16 in Calm     92% 0.00 in
15:18 64.4 °F 61.7 °F 30.16 in Calm     91% 0.00 in
15:23 64.6 °F 62.2 °F 30.16 in Calm     92% 0.00 in
15:28 64.4 °F 62.1 °F 30.16 in Calm     92% 0.00 in
15:33 64.4 °F 61.7 °F 30.16 in Calm     91% 0.00 in
15:39 64.4 °F 62.1 °F 30.16 in Calm     92% 0.00 in
15:44 64.2 °F 61.9 °F 30.16 in Calm     92% 0.00 in
15:49 64.2 °F 61.9 °F 30.16 in Calm     92% 0.00 in
15:55 64.2 °F 61.9 °F 30.15 in Calm     92% 0.00 in
16:01 64.2 °F 61.9 °F 30.15 in Calm     92% 0.00 in
16:06 64.2 °F 61.9 °F 30.15 in Calm     92% 0.00 in
16:12 64.2 °F 61.9 °F 30.15 in Calm     92% 0.00 in
16:17 64.2 °F 61.9 °F 30.15 in Calm     92% 0.00 in
16:22 64.2 °F 61.9 °F 30.15 in Calm     92% 0.00 in
16:27 64.2 °F 61.9 °F 30.15 in Calm     92% 0.00 in
16:32 64.0 °F 61.7 °F 30.14 in Calm     92% 0.00 in
16:38 64.2 °F 61.9 °F 30.15 in Calm     92% 0.00 in
16:43 64.0 °F 61.7 °F 30.14 in Calm     92% 0.00 in
16:48 64.0 °F 61.7 °F 30.14 in Calm     92% 0.00 in
16:54 64.0 °F 61.7 °F 30.14 in Calm     92% 0.00 in
16:59 64.0 °F 61.7 °F 30.15 in Calm     92% 0.00 in
17:04 64.0 °F 61.7 °F 30.14 in Calm     92% 0.00 in
17:10 64.0 °F 61.7 °F 30.14 in Calm     92% 0.00 in
17:16 64.0 °F 61.7 °F 30.14 in Calm     92% 0.00 in
17:21 63.9 °F 61.5 °F 30.14 in Calm     92% 0.00 in
17:26 63.9 °F 61.5 °F 30.14 in Calm     92% 0.00 in
17:31 63.9 °F 61.5 °F 30.14 in Calm     92% 0.00 in
17:36 63.9 °F 61.5 °F 30.14 in Calm     92% 0.00 in
17:42 63.9 °F 61.5 °F 30.14 in Calm     92% 0.00 in
17:47 63.9 °F 61.5 °F 30.14 in Calm     92% 0.00 in
17:52 63.7 °F 61.3 °F 30.14 in Calm     92% 0.00 in
17:57 63.7 °F 61.3 °F 30.14 in Calm     92% 0.00 in
18:02 63.7 °F 61.3 °F 30.13 in Calm     92% 0.00 in
18:07 63.5 °F 61.2 °F 30.14 in Calm     92% 0.00 in
18:12 63.5 °F 61.2 °F 30.14 in Calm     92% 0.00 in
18:18 63.5 °F 61.2 °F 30.13 in Calm     92% 0.00 in
18:24 63.3 °F 61.0 °F 30.13 in Calm     92% 0.00 in
18:29 63.3 °F 61.3 °F 30.13 in Calm     93% 0.00 in
18:34 63.3 °F 61.3 °F 30.13 in Calm     93% 0.00 in
18:40 63.1 °F 61.2 °F 30.13 in Calm     93% 0.00 in
18:45 63.3 °F 61.3 °F 30.13 in Calm     93% 0.00 in
18:50 63.3 °F 61.3 °F 30.13 in Calm     93% 0.00 in
18:55 63.3 °F 61.3 °F 30.13 in Calm     93% 0.00 in
19:00 63.3 °F 61.3 °F 30.13 in Calm     93% 0.00 in
19:05 63.3 °F 61.3 °F 30.13 in Calm     93% 0.00 in
19:10 63.1 °F 61.2 °F 30.13 in Calm     93% 0.00 in
19:16 63.3 °F 61.3 °F 30.12 in Calm     93% 0.00 in
19:21 63.1 °F 61.2 °F 30.12 in Calm     93% 0.00 in
19:26 63.3 °F 61.3 °F 30.12 in Calm     93% 0.00 in
19:31 63.3 °F 61.3 °F 30.12 in Calm     93% 0.00 in
19:37 63.1 °F 61.2 °F 30.12 in Calm     93% 0.00 in
19:43 63.3 °F 61.3 °F 30.12 in Calm     93% 0.00 in
19:48 63.3 °F 61.3 °F 30.12 in Calm     93% 0.00 in
19:53 63.3 °F 61.3 °F 30.12 in Calm     93% 0.00 in
19:58 63.3 °F 61.0 °F 30.13 in Calm     92% 0.00 in
20:04 63.3 °F 61.3 °F 30.13 in Calm     93% 0.00 in
20:09 63.3 °F 61.3 °F 30.13 in Calm     93% 0.00 in
20:15 63.1 °F 61.2 °F 30.13 in Calm     93% 0.00 in
20:20 63.1 °F 61.2 °F 30.13 in Calm     93% 0.00 in
20:25 63.1 °F 61.2 °F 30.13 in Calm     93% 0.00 in
20:30 63.1 °F 61.2 °F 30.13 in Calm     93% 0.00 in
20:35 63.3 °F 61.3 °F 30.12 in Calm     93% 0.00 in
20:40 63.3 °F 61.3 °F 30.12 in Calm     93% 0.00 in
20:45 63.3 °F 61.3 °F 30.13 in Calm     93% 0.00 in
20:51 63.1 °F 61.2 °F 30.13 in Calm     93% 0.00 in
20:56 63.1 °F 61.2 °F 30.13 in Calm     93% 0.00 in
21:01 63.1 °F 61.2 °F 30.13 in Calm     93% 0.00 in
21:06 63.1 °F 61.2 °F 30.14 in Calm     93% 0.00 in
21:12 63.1 °F 61.2 °F 30.13 in Calm     93% 0.00 in
21:18 63.0 °F 61.0 °F 30.13 in Calm     93% 0.00 in
21:23 63.1 °F 61.2 °F 30.13 in Calm     93% 0.00 in
21:28 63.1 °F 61.2 °F 30.13 in Calm     93% 0.00 in
21:33 63.1 °F 61.2 °F 30.12 in Calm     93% 0.00 in
21:39 63.1 °F 61.2 °F 30.13 in Calm     93% 0.00 in
21:44 63.1 °F 61.2 °F 30.13 in Calm     93% 0.00 in
21:49 63.1 °F 61.2 °F 30.12 in Calm     93% 0.00 in
21:55 63.1 °F 61.2 °F 30.12 in Calm     93% 0.00 in
22:00 63.1 °F 61.2 °F 30.12 in Calm     93% 0.00 in
22:05 63.1 °F 61.2 °F 30.11 in Calm     93% 0.00 in
22:10 63.1 °F 61.2 °F 30.11 in Calm     93% 0.00 in
22:15 63.1 °F 61.2 °F 30.11 in Calm     93% 0.00 in
22:20 63.1 °F 61.2 °F 30.11 in Calm     93% 0.00 in
22:26 63.1 °F 61.2 °F 30.11 in Calm     93% 0.00 in
22:31 63.1 °F 61.2 °F 30.11 in Calm     93% 0.00 in
22:37 63.0 °F 61.0 °F 30.11 in Calm     93% 0.00 in
22:41 63.0 °F 61.0 °F 30.11 in Calm     93% 0.00 in
22:47 63.1 °F 61.2 °F 30.11 in Calm     93% 0.00 in
22:53 63.1 °F 61.2 °F 30.11 in Calm     93% 0.00 in
22:58 63.1 °F 61.2 °F 30.11 in Calm     93% 0.00 in
23:04 63.1 °F 61.2 °F 30.11 in Calm     93% 0.00 in
23:10 63.1 °F 61.2 °F 30.11 in Calm     93% 0.00 in
23:15 63.1 °F 61.2 °F 30.10 in Calm     93% 0.00 in
23:20 63.1 °F 61.2 °F 30.10 in Calm     93% 0.00 in
23:26 63.1 °F 61.2 °F 30.11 in Calm     93% 0.00 in
23:32 63.1 °F 61.3 °F 30.11 in Calm     94% 0.00 in
23:37 63.5 °F 61.7 °F 30.11 in Calm     94% 0.00 in
23:42 63.7 °F 61.7 °F 30.11 in Calm     93% 0.00 in
23:47 63.7 °F 61.7 °F 30.11 in Calm     93% 0.00 in
23:52 63.7 °F 61.7 °F 30.11 in Calm     93% 0.00 in
23:57 63.7 °F 61.7 °F 30.11 in Calm     93% 0.00 in
Ellijay Weather
Compliments of Weather Underground - 2.5 mb